createdAt,value
2023-04-07T00:01:54.367Z,50.20
2023-04-07T00:05:57.274Z,55.80
2023-04-07T00:10:00.648Z,54.20
2023-04-07T00:14:03.975Z,51.50
2023-04-07T00:18:07.115Z,57.90
2023-04-07T00:22:10.558Z,77.20
2023-04-07T00:26:13.882Z,51.20
2023-04-07T00:30:17.804Z,62.50
2023-04-07T00:34:20.768Z,61.20
2023-04-07T00:38:23.806Z,68.40
2023-04-07T00:42:27.250Z,63.80
2023-04-07T00:46:30.478Z,61.90
2023-04-07T00:50:33.742Z,49.70
2023-04-07T00:54:36.655Z,60.00
2023-04-07T00:58:39.782Z,51.00
2023-04-07T01:02:48.564Z,56.40
2023-04-07T01:06:57.243Z,56.90
2023-04-07T01:11:04.017Z,66.90
2023-04-07T01:15:12.185Z,59.20
2023-04-07T01:19:36.747Z,56.00
2023-04-07T01:23:52.610Z,74.50
2023-04-07T01:28:14.203Z,66.00
2023-04-07T01:32:20.468Z,60.80
2023-04-07T01:36:25.142Z,58.40
2023-04-07T01:40:29.645Z,57.40
2023-04-07T01:44:33.066Z,55.00
2023-04-07T01:48:37.012Z,55.60
2023-04-07T01:52:40.706Z,49.40
2023-04-07T01:56:45.106Z,47.80
2023-04-07T02:04:57.008Z,57.00
2023-04-07T02:09:06.963Z,51.20
2023-04-07T02:13:13.258Z,51.00
2023-04-07T02:17:16.974Z,52.40
2023-04-07T02:21:21.543Z,46.20
2023-04-07T02:25:28.447Z,44.80
2023-04-07T02:29:31.253Z,34.80
2023-04-07T02:33:34.328Z,37.90
2023-04-07T02:37:37.299Z,43.60
2023-04-07T02:41:40.732Z,52.60
2023-04-07T02:45:43.968Z,42.90
2023-04-07T02:49:46.926Z,39.00
2023-04-07T02:53:50.089Z,46.00
2023-04-07T02:57:53.087Z,41.00
2023-04-07T03:01:56.080Z,37.30
2023-04-07T03:05:59.333Z,40.20
2023-04-07T03:10:02.362Z,44.00
2023-04-07T03:14:05.276Z,42.10
2023-04-07T03:18:08.906Z,43.70
2023-04-07T03:22:11.921Z,48.10
2023-04-07T03:26:14.915Z,38.00
2023-04-07T03:30:18.081Z,39.90
2023-04-07T03:34:21.053Z,35.10
2023-04-07T03:38:24.161Z,34.60
2023-04-07T03:42:27.148Z,32.90
2023-04-07T03:46:31.599Z,37.20
2023-04-07T03:50:35.141Z,32.30
2023-04-07T03:54:38.156Z,39.10
2023-04-07T03:58:42.896Z,41.00
2023-04-07T04:02:46.138Z,39.10
2023-04-07T04:06:49.306Z,32.30
2023-04-07T04:10:52.496Z,33.70
2023-04-07T04:14:56.737Z,49.40
2023-04-07T04:19:00.416Z,41.90
2023-04-07T04:23:03.342Z,34.60
2023-04-07T04:27:06.348Z,49.20
2023-04-07T04:31:09.505Z,42.30
2023-04-07T04:35:12.719Z,42.40
2023-04-07T04:39:16.432Z,41.80
2023-04-07T04:43:19.766Z,43.30
2023-04-07T04:47:23.793Z,44.50
2023-04-07T04:51:27.466Z,41.70
2023-04-07T04:55:31.336Z,41.60
2023-04-07T04:59:35.037Z,39.90
2023-04-07T05:03:39.251Z,36.50
2023-04-07T05:07:43.328Z,35.00
2023-04-07T05:11:46.764Z,37.80
2023-04-07T05:15:51.573Z,36.20
2023-04-07T05:19:54.800Z,38.10
2023-04-07T05:23:57.885Z,42.50
2023-04-07T05:28:01.032Z,37.90
2023-04-07T05:32:06.478Z,46.40
2023-04-07T05:36:10.264Z,42.90
2023-04-07T05:40:14.015Z,41.30
2023-04-07T05:44:17.587Z,44.80
2023-04-07T05:48:20.822Z,43.20
2023-04-07T05:52:23.741Z,36.10
2023-04-07T05:56:27.226Z,38.50
2023-04-07T06:00:30.330Z,38.80
2023-04-07T06:04:35.497Z,32.10
2023-04-07T06:08:38.600Z,37.50
2023-04-07T06:12:41.885Z,31.00
2023-04-07T06:16:45.228Z,37.20
2023-04-07T06:20:48.708Z,38.60
2023-04-07T06:24:51.698Z,36.10
2023-04-07T06:28:54.943Z,28.20
2023-04-07T06:32:58.267Z,26.00
2023-04-07T06:37:01.741Z,32.30
2023-04-07T06:41:05.076Z,25.90
2023-04-07T06:45:09.134Z,37.40
2023-04-07T06:49:12.801Z,35.60
2023-04-07T06:53:17.999Z,29.00
2023-04-07T06:57:21.287Z,31.70
2023-04-07T07:01:24.307Z,29.20
2023-04-07T07:05:27.672Z,37.20
2023-04-07T07:09:30.740Z,32.30
2023-04-07T07:13:33.698Z,23.10
2023-04-07T07:17:36.765Z,30.90
2023-04-07T07:21:40.738Z,28.90
2023-04-07T07:25:43.816Z,31.60
2023-04-07T07:29:46.857Z,29.90
2023-04-07T07:33:51.644Z,38.10
2023-04-07T07:37:54.868Z,37.50
2023-04-07T07:41:58.067Z,40.70
2023-04-07T07:46:01.542Z,36.80
2023-04-07T07:50:05.735Z,35.30
2023-04-07T07:54:09.745Z,53.90
2023-04-07T07:58:12.978Z,38.90
2023-04-07T08:02:16.739Z,38.40
2023-04-07T08:06:20.157Z,37.00
2023-04-07T08:10:25.248Z,30.20
2023-04-07T08:14:28.972Z,43.20
2023-04-07T08:18:32.382Z,40.60
2023-04-07T08:22:36.220Z,38.80
2023-04-07T08:26:40.817Z,39.40
2023-04-07T08:30:43.818Z,41.80
2023-04-07T08:34:47.681Z,41.00
2023-04-07T08:38:51.527Z,43.00
2023-04-07T08:42:55.263Z,41.10
2023-04-07T08:47:01.862Z,42.00
2023-04-07T08:51:08.300Z,37.40
2023-04-07T08:59:18.418Z,40.20
2023-04-07T09:03:23.368Z,37.20
2023-04-07T09:07:26.786Z,39.70
2023-04-07T09:11:31.112Z,37.90
2023-04-07T09:15:36.760Z,41.90
2023-04-07T09:19:41.303Z,45.50
2023-04-07T09:23:44.663Z,33.90
2023-04-07T09:28:04.307Z,48.30
2023-04-07T09:32:08.215Z,48.80
2023-04-07T09:36:12.400Z,47.50
2023-04-07T09:40:27.409Z,42.00
2023-04-07T09:44:41.195Z,46.90
2023-04-07T09:48:46.175Z,48.80
2023-04-07T09:52:53.619Z,44.40
2023-04-07T09:56:57.848Z,38.40
2023-04-07T10:01:01.510Z,22.90
2023-04-07T10:05:05.255Z,30.80
2023-04-07T10:09:08.366Z,27.70
2023-04-07T10:13:12.689Z,28.00
2023-04-07T10:17:19.420Z,29.90
2023-04-07T10:21:23.259Z,20.20
2023-04-07T10:25:26.823Z,20.40
2023-04-07T10:29:34.712Z,21.60
2023-04-07T10:33:47.868Z,20.00
2023-04-07T10:38:16.763Z,19.10
2023-04-07T10:42:37.974Z,16.80
2023-04-07T10:46:50.175Z,21.30
2023-04-07T10:51:05.133Z,23.80
2023-04-07T10:55:32.978Z,19.90
2023-04-07T10:59:36.804Z,26.10
2023-04-07T11:03:42.471Z,21.20
2023-04-07T11:07:50.041Z,20.60
2023-04-07T11:11:53.640Z,27.40
2023-04-07T11:15:56.835Z,23.70
2023-04-07T11:19:59.960Z,21.20
2023-04-07T11:24:03.031Z,24.70
2023-04-07T11:28:06.299Z,20.10
2023-04-07T11:32:09.399Z,21.50
2023-04-07T11:36:12.433Z,23.30
2023-04-07T11:40:35.628Z,17.30
2023-04-07T11:44:47.809Z,19.80
2023-04-07T11:48:51.785Z,19.40
2023-04-07T11:52:55.102Z,25.90
2023-04-07T11:56:59.087Z,23.40
2023-04-07T12:01:09.110Z,27.50
2023-04-07T12:05:14.722Z,23.90
2023-04-07T12:09:28.029Z,26.40
2023-04-07T12:13:32.729Z,23.80
2023-04-07T12:17:36.171Z,38.70
2023-04-07T12:21:39.471Z,29.90
2023-04-07T12:25:43.384Z,28.20
2023-04-07T12:29:46.955Z,32.50
2023-04-07T12:33:50.787Z,24.20
2023-04-07T12:37:54.825Z,28.70
2023-04-07T12:41:58.339Z,22.10
2023-04-07T12:46:01.462Z,31.40
2023-04-07T12:50:04.938Z,25.80
2023-04-07T12:54:09.050Z,22.60
2023-04-07T12:58:12.064Z,28.30
2023-04-07T13:02:18.683Z,19.80
2023-04-07T13:06:22.652Z,24.80
2023-04-07T13:10:25.726Z,23.90
2023-04-07T13:14:28.670Z,24.40
2023-04-07T13:18:31.651Z,24.80
2023-04-07T13:22:35.944Z,23.20
2023-04-07T13:26:39.380Z,25.60
2023-04-07T13:30:42.656Z,26.50
2023-04-07T13:34:46.871Z,25.20
2023-04-07T13:38:50.024Z,31.10
2023-04-07T13:42:53.332Z,19.70
2023-04-07T13:46:57.733Z,22.20
2023-04-07T13:51:01.148Z,23.10
2023-04-07T13:55:05.737Z,35.30
2023-04-07T13:59:09.347Z,19.80
2023-04-07T14:03:12.830Z,31.50
2023-04-07T14:07:16.790Z,17.40
2023-04-07T14:11:20.373Z,24.50
2023-04-07T14:15:23.826Z,18.00
2023-04-07T14:19:27.539Z,16.20
2023-04-07T14:23:37.382Z,18.20
2023-04-07T14:27:41.323Z,13.10
2023-04-07T14:31:46.022Z,15.80
2023-04-07T14:35:49.863Z,15.10
2023-04-07T14:40:02.633Z,18.20
2023-04-07T14:44:06.686Z,14.50
2023-04-07T14:48:09.904Z,13.60
2023-04-07T14:52:14.251Z,10.40
2023-04-07T14:56:17.953Z,15.30
2023-04-07T15:00:21.866Z,14.20
2023-04-07T15:04:26.257Z,11.20
2023-04-07T15:08:30.511Z,14.20
2023-04-07T15:12:33.625Z,16.70
2023-04-07T15:16:36.864Z,14.40
2023-04-07T15:20:41.359Z,13.90
2023-04-07T15:24:44.501Z,21.00
2023-04-07T15:28:48.751Z,21.80
2023-04-07T15:33:04.406Z,15.10
2023-04-07T15:37:08.513Z,15.60
2023-04-07T15:41:15.528Z,16.20
2023-04-07T15:45:18.667Z,21.00
2023-04-07T15:49:25.648Z,14.70
2023-04-07T15:53:29.793Z,15.20
2023-04-07T15:57:33.104Z,13.80
2023-04-07T16:01:37.492Z,14.70
2023-04-07T16:05:40.687Z,17.80
2023-04-07T16:09:44.361Z,18.90
2023-04-07T16:13:47.667Z,26.60
2023-04-07T16:17:52.221Z,21.10
2023-04-07T16:21:55.981Z,27.50
2023-04-07T16:25:59.193Z,22.70
2023-04-07T16:30:03.848Z,26.20
2023-04-07T16:34:07.486Z,16.40
2023-04-07T16:38:11.588Z,17.30
2023-04-07T16:42:14.745Z,18.80
2023-04-07T16:46:18.036Z,32.80
2023-04-07T16:50:21.717Z,26.10
2023-04-07T16:54:24.932Z,20.80
2023-04-07T16:58:44.180Z,18.00
2023-04-07T17:16:29.228Z,28.00
2023-04-07T17:20:33.643Z,26.00
2023-04-07T17:24:58.044Z,29.90
2023-04-07T17:29:39.789Z,25.50
2023-04-07T17:33:56.988Z,28.30
2023-04-07T17:39:22.082Z,24.80
2023-04-07T17:43:49.486Z,26.70
2023-04-07T17:48:25.791Z,23.00
2023-04-07T17:53:07.035Z,31.50
2023-04-07T17:58:19.164Z,31.60
2023-04-07T18:12:50.955Z,33.20
2023-04-07T18:17:39.088Z,32.10
2023-04-07T18:22:34.156Z,27.50
2023-04-07T18:26:50.706Z,31.20
2023-04-07T18:31:49.053Z,35.20
2023-04-07T18:37:15.198Z,27.70
2023-04-07T18:47:09.063Z,24.20
2023-04-07T18:51:21.250Z,25.70
2023-04-07T18:55:26.374Z,29.70
2023-04-07T18:59:31.276Z,24.30
2023-04-07T19:03:34.973Z,24.70
2023-04-07T19:07:38.270Z,29.60
2023-04-07T19:11:41.783Z,23.30
2023-04-07T19:15:46.490Z,24.80
2023-04-07T19:19:50.040Z,26.70
2023-04-07T19:23:56.093Z,22.80
2023-04-07T19:27:59.299Z,23.80
2023-04-07T19:32:03.709Z,22.60
2023-04-07T19:36:06.901Z,28.90
2023-04-07T19:40:10.483Z,21.40
2023-04-07T19:44:13.534Z,23.90
2023-04-07T19:48:17.652Z,25.00
2023-04-07T19:52:20.705Z,25.40
2023-04-07T19:56:25.233Z,23.60
2023-04-07T20:00:30.651Z,34.70
2023-04-07T20:04:35.116Z,25.80
2023-04-07T20:08:38.206Z,26.00
2023-04-07T20:12:41.269Z,26.90
2023-04-07T20:16:44.721Z,18.80
2023-04-07T20:20:47.885Z,23.20
2023-04-07T20:24:51.057Z,21.90
2023-04-07T20:28:54.130Z,24.60
2023-04-07T20:32:57.400Z,25.60
2023-04-07T20:37:00.856Z,29.00
2023-04-07T20:41:04.039Z,29.90
2023-04-07T20:45:08.155Z,22.60
2023-04-07T20:49:12.686Z,26.20
2023-04-07T20:53:16.822Z,27.90
2023-04-07T20:57:20.377Z,26.40
2023-04-07T21:01:24.045Z,26.50
2023-04-07T21:05:27.252Z,23.80
2023-04-07T21:09:30.926Z,26.60
2023-04-07T21:13:33.985Z,22.30
2023-04-07T21:17:37.206Z,26.40
2023-04-07T21:21:40.426Z,25.90
2023-04-07T21:25:48.362Z,24.10
2023-04-07T21:29:52.167Z,24.60
2023-04-07T21:33:58.680Z,19.20
2023-04-07T21:51:55.753Z,17.10
2023-04-07T21:56:01.277Z,18.60
2023-04-07T22:00:07.502Z,12.60
2023-04-07T22:04:13.235Z,15.00
2023-04-07T22:08:17.289Z,21.20
2023-04-07T22:12:20.985Z,14.00
2023-04-07T22:16:25.202Z,14.40
2023-04-07T22:20:30.072Z,15.70
2023-04-07T22:24:33.861Z,13.20
2023-04-07T22:28:37.818Z,15.30
2023-04-07T22:32:52.518Z,21.50
2023-04-07T22:37:25.854Z,16.70
2023-04-07T22:41:49.669Z,17.70
2023-04-07T23:18:21.364Z,16.50
2023-04-07T23:22:26.552Z,20.30
2023-04-07T23:26:32.215Z,18.80
2023-04-07T23:35:00.562Z,14.90
2023-04-07T23:39:04.744Z,12.90
2023-04-07T23:43:09.134Z,19.20
2023-04-07T23:47:12.884Z,18.00
2023-04-07T23:51:16.937Z,17.30
